Time;durP1;ratioP1;P1;durP2;ratioP2;P2;SDS_P1;SDS_P2;PMS_P1;PMS_P2;Temp;Humidity;BMP_temperature;BMP_pressure;BME280_temperature;BME280_humidity;BME280_pressure;Samples;Min_cycle;Max_cycle;Signal;HPM_P1;HPM_P2
2021/01/18 00:00:45;;;;;;;21.97;14.80;;;-2.70;1.00;;;;;;5110455;28;20526;-60
2021/01/18 00:03:11;;;;;;;18.33;13.50;;;;;;;;;;5111427;28;20247;-61
2021/01/18 00:05:37;;;;;;;21.47;14.03;;;-2.50;1.00;;;;;;5109490;28;20289;-60
2021/01/18 00:08:02;;;;;;;20.70;12.47;;;-2.50;1.00;;;;;;5111023;28;20447;-60
2021/01/18 00:10:28;;;;;;;19.57;12.77;;;-2.40;1.00;;;;;;5111328;28;20229;-61
2021/01/18 00:12:55;;;;;;;24.13;13.73;;;-2.40;1.00;;;;;;5111359;28;20224;-61
2021/01/18 00:15:23;;;;;;;20.17;13.83;;;-2.20;1.00;;;;;;5111187;28;20280;-61
2021/01/18 00:17:48;;;;;;;18.97;12.47;;;-2.20;1.00;;;;;;5111136;28;20440;-61
2021/01/18 00:20:18;;;;;;;21.23;13.07;;;-2.10;1.00;;;;;;5110717;28;20641;-61
2021/01/18 00:22:44;;;;;;;21.63;12.83;;;-2.10;1.00;;;;;;5110813;28;21012;-61
2021/01/18 00:25:18;;;;;;;17.27;11.80;;;-2.10;1.00;;;;;;5111098;28;20442;-62
2021/01/18 00:27:44;;;;;;;18.00;11.63;;;-2.10;1.00;;;;;;5111704;28;20920;-61
2021/01/18 00:30:21;;;;;;;18.10;12.40;;;-2.00;1.00;;;;;;5110008;28;20478;-62
2021/01/18 00:32:48;;;;;;;16.53;11.40;;;-2.00;1.00;;;;;;5110695;28;20241;-61
2021/01/18 00:35:15;;;;;;;16.83;11.20;;;-2.00;1.00;;;;;;5109871;28;20977;-62
2021/01/18 00:37:49;;;;;;;17.47;11.10;;;-1.90;1.00;;;;;;5109939;28;20905;-61
2021/01/18 00:40:20;;;;;;;16.70;10.80;;;-1.90;1.00;;;;;;5111263;28;20446;-62
2021/01/18 00:42:46;;;;;;;16.53;10.33;;;-2.00;1.00;;;;;;5110713;28;20443;-62
2021/01/18 00:45:14;;;;;;;22.30;13.17;;;-1.90;1.00;;;;;;5113448;28;20955;-62
2021/01/18 00:47:44;;;;;;;20.30;12.03;;;-1.90;1.00;;;;;;5115339;28;20500;-62
2021/01/18 00:50:20;;;;;;;16.57;10.90;;;-1.90;1.00;;;;;;5113736;28;20558;-61
2021/01/18 00:52:48;;;;;;;16.50;11.27;;;-1.80;1.00;;;;;;5115083;28;20609;-62
2021/01/18 00:55:19;;;;;;;16.50;11.53;;;-1.90;1.00;;;;;;5115092;27;20457;-61
2021/01/18 00:57:45;;;;;;;18.67;11.37;;;-1.80;1.00;;;;;;5114824;28;20436;-61
2021/01/18 01:00:17;;;;;;;17.10;11.10;;;-1.80;1.00;;;;;;5115015;28;20581;-61
2021/01/18 01:02:45;;;;;;;19.47;10.90;;;-1.70;1.00;;;;;;5114382;28;20856;-62
2021/01/18 01:05:13;;;;;;;18.23;11.93;;;-1.70;1.00;;;;;;5115242;28;20784;-61
2021/01/18 01:07:44;;;;;;;18.40;10.87;;;-1.60;1.00;;;;;;5114879;28;20772;-62
2021/01/18 01:10:21;;;;;;;16.07;10.40;;;-1.60;1.00;;;;;;5096134;28;20463;-61
2021/01/18 01:12:53;;;;;;;14.00;9.90;;;-1.60;1.00;;;;;;5113511;28;20438;-61
2021/01/18 01:15:18;;;;;;;13.80;9.23;;;-1.60;1.00;;;;;;5114545;28;20432;-62
2021/01/18 01:17:45;;;;;;;14.73;9.50;;;-1.70;1.00;;;;;;5114394;28;20664;-61
2021/01/18 01:20:13;;;;;;;18.10;10.57;;;-1.70;1.00;;;;;;5114013;28;20190;-61
2021/01/18 01:22:39;;;;;;;12.00;8.13;;;-1.70;1.00;;;;;;5114699;28;20432;-62
2021/01/18 01:25:09;;;;;;;14.30;8.87;;;-1.80;1.00;;;;;;5114507;28;20431;-61
2021/01/18 01:27:36;;;;;;;12.40;8.10;;;-1.90;1.00;;;;;;5114876;27;20447;-61
2021/01/18 01:30:09;;;;;;;12.30;8.07;;;-1.90;1.00;;;;;;5114466;28;20447;-61
2021/01/18 01:32:37;;;;;;;13.77;9.47;;;-1.90;1.00;;;;;;5113639;28;20459;-61
2021/01/18 01:35:05;;;;;;;13.90;8.87;;;-1.90;1.00;;;;;;5114104;28;20435;-62
2021/01/18 01:37:30;;;;;;;11.63;8.70;;;-1.90;1.00;;;;;;5113948;28;20443;-60
2021/01/18 01:39:56;;;;;;;16.10;8.07;;;;;;;;;;5114185;28;20436;-61
2021/01/18 01:42:23;;;;;;;13.43;8.83;;;-2.00;1.00;;;;;;5113823;28;20265;-61
2021/01/18 01:44:50;;;;;;;12.50;9.03;;;-2.00;1.00;;;;;;5114072;28;20459;-61
2021/01/18 01:47:24;;;;;;;12.33;8.53;;;-2.00;1.00;;;;;;5113900;28;21002;-61
2021/01/18 01:49:51;;;;;;;13.87;9.40;;;-2.00;1.00;;;;;;5113756;27;20533;-61
2021/01/18 01:52:17;;;;;;;14.73;8.90;;;-2.00;1.00;;;;;;5114084;28;20435;-61
2021/01/18 01:54:43;;;;;;;12.70;8.33;;;-2.00;1.00;;;;;;5113129;28;20932;-60
2021/01/18 01:57:09;;;;;;;11.57;8.20;;;-2.00;1.00;;;;;;5113460;28;20523;-61
2021/01/18 01:59:35;;;;;;;10.27;7.20;;;-2.00;1.00;;;;;;5113799;28;20440;-61
2021/01/18 02:02:01;;;;;;;14.73;9.60;;;-2.10;1.00;;;;;;5113064;28;20493;-61
2021/01/18 02:04:31;;;;;;;11.07;8.37;;;-2.10;1.00;;;;;;5114038;28;20474;-61
2021/01/18 02:06:57;;;;;;;16.20;9.07;;;-2.00;1.00;;;;;;5113370;27;20269;-60
2021/01/18 02:09:22;;;;;;;13.53;8.60;;;-1.90;1.00;;;;;;5113649;28;20981;-60
2021/01/18 02:11:48;;;;;;;13.90;9.43;;;-1.90;1.00;;;;;;5118057;27;20214;-61
2021/01/18 02:14:40;;;;;;;12.27;8.13;;;-1.90;1.00;;;;;;5111718;28;20276;-61
2021/01/18 02:17:16;;;;;;;16.13;8.40;;;-1.90;1.00;;;;;;5113391;27;20190;-60
2021/01/18 02:20:05;;;;;;;13.40;9.30;;;-2.00;1.00;;;;;;5113710;28;20870;-61
2021/01/18 02:23:05;;;;;;;14.37;7.33;;;-1.90;1.00;;;;;;5113344;28;20762;-61
2021/01/18 02:25:50;;;;;;;12.60;8.10;;;-1.80;1.00;;;;;;5112655;28;20436;-61
2021/01/18 02:28:57;;;;;;;14.20;9.50;;;-1.60;1.00;;;;;;5111929;28;20439;-61
2021/01/18 02:31:50;;;;;;;13.40;9.00;;;-1.60;1.00;;;;;;5085038;27;20472;-60
2021/01/18 02:34:16;;;;;;;13.10;8.40;;;;;;;;;;5112881;28;20435;-60
2021/01/18 02:37:01;;;;;;;13.43;8.23;;;-1.40;1.00;;;;;;5112828;28;20535;-60
2021/01/18 02:39:57;;;;;;;12.23;8.10;;;-1.40;1.00;;;;;;5112782;28;20829;-61
2021/01/18 02:42:30;;;;;;;14.07;8.23;;;-1.30;1.00;;;;;;5112614;28;20885;-60
2021/01/18 02:44:59;;;;;;;14.13;8.03;;;-1.20;1.00;;;;;;5112856;28;20427;-61
2021/01/18 02:47:30;;;;;;;12.17;8.57;;;-1.20;1.00;;;;;;5111137;28;20432;-61
2021/01/18 02:49:59;;;;;;;16.67;9.30;;;-1.20;1.00;;;;;;5111425;28;20516;-61
2021/01/18 02:52:25;;;;;;;10.97;7.43;;;-1.10;1.00;;;;;;5112665;28;20459;-61
2021/01/18 02:54:51;;;;;;;12.57;7.97;;;-1.10;1.00;;;;;;5112838;28;20423;-61
2021/01/18 02:57:19;;;;;;;14.00;8.50;;;-1.00;1.00;;;;;;5111173;28;20431;-61
2021/01/18 02:59:45;;;;;;;9.10;7.43;;;;;;;;;;5112513;28;20635;-62
2021/01/18 03:02:47;;;;;;;12.10;8.90;;;-1.00;1.00;;;;;;5112406;28;20487;-62
2021/01/18 03:05:41;;;;;;;13.60;8.47;;;-1.00;1.00;;;;;;5110247;28;20572;-61
2021/01/18 03:08:16;;;;;;;13.17;8.13;;;-1.00;1.00;;;;;;5111523;28;20956;-61
2021/01/18 03:11:01;;;;;;;13.40;8.30;;;-1.10;1.00;;;;;;5112273;28;20466;-63
2021/01/18 03:13:52;;;;;;;13.90;8.23;;;-1.00;1.00;;;;;;5112093;27;20431;-61
2021/01/18 03:16:27;;;;;;;14.90;8.13;;;-1.00;1.00;;;;;;5110322;28;20432;-61
2021/01/18 03:18:56;;;;;;;13.33;8.43;;;-1.10;1.00;;;;;;5110703;28;20502;-60
2021/01/18 03:21:23;;;;;;;11.83;8.37;;;;;;;;;;5111686;28;20796;-60
2021/01/18 03:23:48;;;;;;;15.77;9.30;;;-1.10;1.00;;;;;;5111819;28;20567;-61
2021/01/18 03:26:14;;;;;;;14.70;8.73;;;-1.10;1.00;;;;;;5112327;28;20441;-61
2021/01/18 03:28:41;;;;;;;11.83;7.87;;;-1.00;1.00;;;;;;5112070;28;20190;-59
2021/01/18 03:31:07;;;;;;;14.93;9.20;;;;;;;;;;5110665;28;20222;-61
2021/01/18 03:33:33;;;;;;;14.67;8.10;;;-1.10;1.00;;;;;;5111637;28;20715;-60
2021/01/18 03:35:59;;;;;;;15.77;9.37;;;;;;;;;;5111978;28;20443;-61
2021/01/18 03:38:25;;;;;;;14.00;8.30;;;-1.00;1.00;;;;;;5110788;28;20247;-61
2021/01/18 03:40:51;;;;;;;14.57;9.63;;;-0.90;1.00;;;;;;5111590;28;20436;-60
2021/01/18 03:43:19;;;;;;;17.07;9.03;;;-0.90;1.00;;;;;;5111474;28;20217;-62
2021/01/18 03:45:45;;;;;;;17.67;9.07;;;-0.90;1.00;;;;;;5111801;28;20466;-60
2021/01/18 03:48:12;;;;;;;15.80;9.13;;;-0.80;1.00;;;;;;5111361;27;20936;-62
2021/01/18 03:50:39;;;;;;;14.20;8.57;;;-0.80;1.00;;;;;;5109822;28;20462;-62
2021/01/18 03:53:05;;;;;;;13.10;8.57;;;-0.70;1.00;;;;;;5111379;28;20466;-61
2021/01/18 03:55:32;;;;;;;15.33;9.30;;;-0.80;1.00;;;;;;5111586;28;20436;-61
2021/01/18 03:57:57;;;;;;;11.57;7.90;;;-0.80;1.00;;;;;;5111487;28;20852;-60
2021/01/18 04:00:28;;;;;;;15.73;9.43;;;-0.70;1.00;;;;;;5111374;28;20448;-61
2021/01/18 04:02:54;;;;;;;16.43;9.53;;;-0.70;1.00;;;;;;5110222;28;20212;-61
2021/01/18 04:05:21;;;;;;;14.53;9.70;;;-0.70;1.00;;;;;;5111621;28;20438;-61
2021/01/18 04:07:47;;;;;;;13.23;9.47;;;-0.70;1.00;;;;;;5114796;27;20526;-63
2021/01/18 04:10:15;;;;;;;12.27;9.07;;;-0.70;1.00;;;;;;5132039;27;20851;-61
2021/01/18 04:12:42;;;;;;;11.70;8.43;;;-0.80;1.00;;;;;;5131966;27;20435;-60
2021/01/18 04:15:10;;;;;;;13.43;9.33;;;-0.80;1.00;;;;;;5131938;27;20424;-59
2021/01/18 04:17:38;;;;;;;22.90;11.23;;;-0.90;1.00;;;;;;5122174;27;20956;-62
2021/01/18 04:20:04;;;;;;;13.93;8.20;;;-0.90;1.00;;;;;;5110981;28;20440;-61
2021/01/18 04:22:30;;;;;;;15.80;9.87;;;-0.90;1.00;;;;;;5111462;28;20789;-60
2021/01/18 04:24:56;;;;;;;16.70;10.27;;;;;;;;;;5111022;28;20583;-60
2021/01/18 04:27:22;;;;;;;15.00;10.20;;;;;;;;;;5111593;28;20204;-61
2021/01/18 04:29:47;;;;;;;17.53;9.73;;;-0.80;1.00;;;;;;5110760;28;20497;-60
2021/01/18 04:32:13;;;;;;;17.17;9.97;;;-0.90;1.00;;;;;;5111156;28;21020;-60
2021/01/18 04:34:39;;;;;;;13.10;9.77;;;-0.80;1.00;;;;;;5110768;28;20186;-60
2021/01/18 04:37:04;;;;;;;12.67;8.83;;;-0.80;1.00;;;;;;5110871;28;20631;-61
2021/01/18 04:39:30;;;;;;;15.43;9.87;;;-0.90;1.00;;;;;;5111343;28;20182;-61
2021/01/18 04:41:58;;;;;;;16.57;9.23;;;-0.90;1.00;;;;;;5110964;28;20185;-61
2021/01/18 04:44:26;;;;;;;15.73;10.77;;;-1.00;1.00;;;;;;5111024;28;20531;-61
2021/01/18 04:46:54;;;;;;;13.07;8.90;;;-0.90;1.00;;;;;;5111091;28;20782;-61
2021/01/18 04:49:20;;;;;;;15.53;10.00;;;-1.00;1.00;;;;;;5110823;28;20689;-60
2021/01/18 04:51:54;;;;;;;16.00;9.70;;;-1.00;1.00;;;;;;5110607;28;20452;-61
2021/01/18 04:54:23;;;;;;;15.83;9.57;;;-0.90;1.00;;;;;;5111247;28;20912;-60
2021/01/18 04:57:08;;;;;;;16.33;9.30;;;-0.90;1.00;;;;;;5110562;28;20434;-60
2021/01/18 04:59:48;;;;;;;17.67;9.90;;;-0.80;1.00;;;;;;5110875;28;20477;-61
2021/01/18 05:02:15;;;;;;;17.80;10.00;;;-0.80;1.00;;;;;;5108348;28;20518;-60
2021/01/18 05:04:44;;;;;;;13.40;10.23;;;-0.80;1.00;;;;;;5110637;28;20535;-61
2021/01/18 05:07:36;;;;;;;19.87;10.20;;;-0.80;1.00;;;;;;5109489;28;20464;-62
2021/01/18 05:10:10;;;;;;;17.77;10.60;;;-0.80;1.00;;;;;;5109610;28;21027;-60
2021/01/18 05:12:43;;;;;;;17.70;9.87;;;-0.70;1.00;;;;;;5111077;28;20428;-61
2021/01/18 05:15:11;;;;;;;15.67;10.73;;;-0.90;1.00;;;;;;5109773;28;20784;-62
2021/01/18 05:17:43;;;;;;;18.53;12.20;;;-0.80;1.00;;;;;;5110923;28;20436;-61
2021/01/18 05:20:11;;;;;;;17.50;10.83;;;-0.80;1.00;;;;;;5110420;28;20730;-61
2021/01/18 05:22:39;;;;;;;18.17;10.60;;;-0.70;1.00;;;;;;5108702;28;20443;-62
2021/01/18 05:25:08;;;;;;;15.43;10.43;;;-0.70;1.00;;;;;;5108214;28;20436;-60
2021/01/18 05:27:34;;;;;;;14.87;10.30;;;-0.70;1.00;;;;;;5110950;28;20424;-61
2021/01/18 05:30:00;;;;;;;15.70;11.53;;;-0.70;1.00;;;;;;5110656;28;20893;-61
2021/01/18 05:32:26;;;;;;;16.87;10.90;;;-0.70;1.00;;;;;;5112544;28;20563;-59
2021/01/18 05:35:10;;;;;;;18.30;11.73;;;-0.70;1.00;;;;;;5114202;28;20485;-61
2021/01/18 05:37:35;;;;;;;22.63;10.97;;;-0.70;1.00;;;;;;5109280;28;20439;-61
2021/01/18 05:40:19;;;;;;;17.10;11.80;;;-0.70;1.00;;;;;;5113923;28;20533;-61
2021/01/18 05:42:45;;;;;;;20.33;12.43;;;-0.80;1.00;;;;;;5114185;28;20174;-61
2021/01/18 05:45:11;;;;;;;21.83;11.73;;;;;;;;;;5114531;27;20519;-61
2021/01/18 05:47:42;;;;;;;18.47;11.87;;;-0.70;1.00;;;;;;5106670;27;20540;-61
2021/01/18 05:50:08;;;;;;;19.37;11.53;;;-0.70;1.00;;;;;;5108403;28;20474;-60
2021/01/18 05:52:34;;;;;;;20.10;11.90;;;-0.70;1.00;;;;;;5111568;27;20493;-58
2021/01/18 05:55:19;;;;;;;22.27;12.20;;;;;;;;;;5110285;28;20444;-59
2021/01/18 05:58:01;;;;;;;18.97;11.97;;;;;;;;;;5112400;28;20190;-59
2021/01/18 06:00:37;;;;;;;21.63;11.70;;;-0.50;1.00;;;;;;5110486;28;20538;-59
2021/01/18 06:03:08;;;;;;;20.70;13.17;;;-0.50;1.00;;;;;;5109162;28;20798;-60
2021/01/18 06:05:36;;;;;;;18.23;11.87;;;-0.40;1.00;;;;;;5109708;28;21701;-60
2021/01/18 06:08:18;;;;;;;15.83;11.50;;;-0.50;1.00;;;;;;5111681;28;20448;-60
2021/01/18 06:10:45;;;;;;;18.67;11.27;;;-0.50;1.00;;;;;;5112180;28;20467;-58
2021/01/18 06:13:24;;;;;;;17.47;11.67;;;-0.40;1.00;;;;;;5111308;28;20486;-60
2021/01/18 06:16:01;;;;;;;21.10;12.93;;;-0.40;1.00;;;;;;5116915;27;20801;-59
2021/01/18 06:18:32;;;;;;;21.23;12.73;;;-0.30;1.00;;;;;;5109744;28;20785;-59
2021/01/18 06:20:58;;;;;;;17.67;11.57;;;-0.30;1.00;;;;;;5112996;28;20464;-60
2021/01/18 06:23:25;;;;;;;18.83;11.40;;;-0.30;1.00;;;;;;5110956;28;20818;-59
2021/01/18 06:25:52;;;;;;;25.73;15.63;;;-0.30;1.00;;;;;;5120965;27;20451;-60
2021/01/18 06:28:25;;;;;;;22.40;14.70;;;-0.30;1.00;;;;;;5113122;27;20436;-61
2021/01/18 06:30:58;;;;;;;18.50;12.90;;;-0.30;1.00;;;;;;5094714;28;20525;-60
2021/01/18 06:33:41;;;;;;;18.23;11.90;;;-0.30;1.00;;;;;;5112672;27;20513;-59
2021/01/18 06:36:24;;;;;;;20.13;13.73;;;-0.20;1.00;;;;;;5111460;28;20442;-58
2021/01/18 06:38:58;;;;;;;17.33;11.73;;;-0.20;1.00;;;;;;5111652;28;20508;-59
2021/01/18 06:41:26;;;;;;;18.50;12.63;;;-0.20;1.00;;;;;;5111025;28;20834;-61
2021/01/18 06:43:53;;;;;;;23.37;13.37;;;-0.10;1.00;;;;;;5108744;28;20454;-59
2021/01/18 06:46:36;;;;;;;19.00;12.10;;;-0.10;1.00;;;;;;5108290;28;20454;-59
2021/01/18 06:49:02;;;;;;;22.33;13.80;;;-0.10;1.00;;;;;;5107568;28;20515;-59
2021/01/18 06:51:29;;;;;;;20.60;12.80;;;0.00;1.00;;;;;;5111413;28;20456;-59
2021/01/18 06:53:57;;;;;;;24.57;14.10;;;-0.10;1.00;;;;;;5110285;28;20446;-60
2021/01/18 06:56:40;;;;;;;20.67;13.97;;;-0.10;1.00;;;;;;5111435;27;20444;-59
2021/01/18 06:59:49;;;;;;;23.00;14.33;;;-0.40;1.00;;;;;;5111833;28;20443;-60
2021/01/18 07:02:20;;;;;;;20.50;13.37;;;-0.30;1.00;;;;;;5107100;28;20486;-60
2021/01/18 07:04:48;;;;;;;21.10;12.67;;;;;;;;;;5110090;28;20794;-64
2021/01/18 07:07:31;;;;;;;21.83;13.67;;;-0.30;1.00;;;;;;5111881;28;20500;-62
2021/01/18 07:09:59;;;;;;;25.17;14.83;;;-0.30;1.00;;;;;;5110731;28;20451;-62
2021/01/18 07:12:26;;;;;;;19.73;14.10;;;-0.40;1.00;;;;;;5111815;28;20453;-62
2021/01/18 07:15:01;;;;;;;20.63;13.80;;;-0.30;1.00;;;;;;5111224;28;20640;-63
2021/01/18 07:17:42;;;;;;;33.07;15.57;;;-0.30;1.00;;;;;;5109279;28;20451;-63
2021/01/18 07:20:19;;;;;;;21.83;13.43;;;-0.20;1.00;;;;;;5111364;28;20435;-62
2021/01/18 07:23:12;;;;;;;24.50;15.90;;;-0.20;1.00;;;;;;5108997;28;20538;-62
2021/01/18 07:25:41;;;;;;;20.67;14.17;;;-0.10;1.00;;;;;;5111702;27;20450;-63
2021/01/18 07:28:09;;;;;;;23.23;13.80;;;-0.10;1.00;;;;;;5109837;28;20443;-62
2021/01/18 07:30:36;;;;;;;23.80;13.63;;;-0.10;1.00;;;;;;5111124;28;20460;-61
2021/01/18 07:33:13;;;;;;;21.93;13.97;;;-0.20;1.00;;;;;;5065006;28;20527;-61
2021/01/18 07:35:40;;;;;;;19.90;13.90;;;-0.20;1.00;;;;;;5065126;28;20903;-61
2021/01/18 07:38:17;;;;;;;21.57;13.53;;;-0.30;1.00;;;;;;5070863;28;20445;-62
2021/01/18 07:41:07;;;;;;;23.17;15.67;;;-0.20;1.00;;;;;;5068572;28;20953;-62
2021/01/18 07:43:38;;;;;;;22.07;15.23;;;-0.10;1.00;;;;;;5070764;28;20444;-63
2021/01/18 07:46:26;;;;;;;22.50;15.23;;;-0.10;1.00;;;;;;5068291;28;20454;-61
2021/01/18 07:48:59;;;;;;;21.97;14.90;;;0.00;1.00;;;;;;5070929;28;20444;-63
2021/01/18 07:51:28;;;;;;;22.50;14.43;;;0.00;1.00;;;;;;5064824;28;20473;-62
2021/01/18 07:53:55;;;;;;;26.70;15.00;;;;;;;;;;5102636;28;20528;-61
2021/01/18 07:56:28;;;;;;;23.77;15.00;;;0.10;1.00;;;;;;5068996;28;20440;-60
2021/01/18 07:58:58;;;;;;;23.53;14.47;;;;;;;;;;5056990;28;20446;-63
2021/01/18 08:01:34;;;;;;;25.97;15.60;;;0.10;1.00;;;;;;5068626;28;20629;-62
2021/01/18 08:04:19;;;;;;;25.50;15.83;;;0.10;1.00;;;;;;5068388;28;20464;-61
2021/01/18 08:07:07;;;;;;;25.87;15.67;;;0.00;1.00;;;;;;5068426;28;20461;-60
2021/01/18 08:09:33;;;;;;;27.40;16.90;;;0.10;1.00;;;;;;5070692;28;20437;-60
2021/01/18 08:12:31;;;;;;;22.83;16.03;;;0.20;1.00;;;;;;5069252;28;20496;-62
2021/01/18 08:14:57;;;;;;;25.00;14.70;;;0.20;1.00;;;;;;5070151;28;20421;-62
2021/01/18 08:17:23;;;;;;;23.97;14.70;;;0.20;1.00;;;;;;5069143;28;20449;-61
2021/01/18 08:20:08;;;;;;;27.43;17.03;;;0.20;1.00;;;;;;5066548;28;20437;-62
2021/01/18 08:22:33;;;;;;;23.67;15.53;;;0.30;1.00;;;;;;5071262;28;20299;-61
2021/01/18 08:25:01;;;;;;;26.97;16.67;;;;;;;;;;5065545;28;20529;-62
2021/01/18 08:27:43;;;;;;;24.13;14.87;;;0.50;1.00;;;;;;5072399;28;20433;-62
2021/01/18 08:30:19;;;;;;;26.47;16.10;;;0.40;1.00;;;;;;5070163;28;20443;-61
2021/01/18 08:33:15;;;;;;;27.50;16.13;;;0.40;1.00;;;;;;5105832;28;20858;-60
2021/01/18 08:35:51;;;;;;;23.90;15.63;;;0.40;1.00;;;;;;5106849;28;20447;-62
2021/01/18 08:38:28;;;;;;;24.43;15.63;;;0.60;1.00;;;;;;5108854;28;20928;-62
2021/01/18 08:41:00;;;;;;;26.40;17.10;;;0.70;1.00;;;;;;5108572;28;20477;-62
2021/01/18 08:43:43;;;;;;;26.67;16.83;;;0.70;1.00;;;;;;5108156;28;20949;-61
2021/01/18 08:46:32;;;;;;;24.07;16.50;;;0.70;1.00;;;;;;5103817;28;20431;-62
2021/01/18 08:49:33;;;;;;;32.50;17.50;;;0.70;1.00;;;;;;5112673;28;20442;-62
2021/01/18 08:52:00;;;;;;;32.70;17.10;;;0.80;1.00;;;;;;5109003;28;20479;-63
2021/01/18 08:54:36;;;;;;;23.77;16.10;;;0.60;1.00;;;;;;5118339;28;20773;-65
2021/01/18 08:57:22;;;;;;;29.80;17.57;;;0.60;1.00;;;;;;5117801;27;20909;-61
2021/01/18 09:00:03;;;;;;;29.10;18.30;;;0.60;1.00;;;;;;5108571;28;20452;-61
2021/01/18 09:02:29;;;;;;;29.07;18.80;;;0.60;1.00;;;;;;5119216;28;20446;-62
2021/01/18 09:05:10;;;;;;;28.77;18.27;;;0.60;1.00;;;;;;5118389;27;20455;-61
2021/01/18 09:07:36;;;;;;;30.47;16.90;;;0.60;1.00;;;;;;5106308;27;20452;-62
2021/01/18 09:10:02;;;;;;;30.63;18.43;;;0.70;1.00;;;;;;5123515;27;20460;-60
2021/01/18 09:12:29;;;;;;;31.67;17.03;;;0.70;1.00;;;;;;5121656;27;20446;-62
2021/01/18 09:15:06;;;;;;;28.33;18.30;;;0.70;1.00;;;;;;5127391;27;20214;-62
2021/01/18 09:17:31;;;;;;;23.67;16.43;;;0.80;1.00;;;;;;5115294;27;20870;-62
2021/01/18 09:19:57;;;;;;;28.53;18.00;;;0.80;1.00;;;;;;5115109;28;20456;-62
2021/01/18 09:22:23;;;;;;;31.50;18.90;;;1.00;1.00;;;;;;5125851;27;20181;-61
2021/01/18 09:24:50;;;;;;;26.77;17.63;;;1.20;1.00;;;;;;5135561;27;20226;-61
2021/01/18 09:27:16;;;;;;;28.27;18.60;;;1.20;1.00;;;;;;5107495;27;20539;-62
2021/01/18 09:29:43;;;;;;;28.97;18.80;;;1.30;1.00;;;;;;5123639;27;20791;-62
2021/01/18 09:32:09;;;;;;;30.37;18.93;;;1.40;1.00;;;;;;5109476;27;20581;-63
2021/01/18 09:34:35;;;;;;;25.93;17.13;;;1.50;1.00;;;;;;5111238;27;20514;-63
2021/01/18 09:37:05;;;;;;;26.20;18.33;;;1.40;1.00;;;;;;5133374;27;20181;-63
2021/01/18 09:39:31;;;;;;;30.17;17.37;;;;;;;;;;5128383;27;20427;-63
2021/01/18 09:41:57;;;;;;;29.93;18.70;;;1.60;1.00;;;;;;5127949;27;20433;-62
2021/01/18 09:44:23;;;;;;;29.10;17.20;;;1.50;1.00;;;;;;5094198;28;20767;-63
2021/01/18 09:46:50;;;;;;;28.10;18.40;;;1.50;1.00;;;;;;5102433;27;20193;-63
2021/01/18 09:49:26;;;;;;;28.20;17.67;;;1.60;1.00;;;;;;5126706;27;20492;-62
2021/01/18 09:51:52;;;;;;;25.23;18.47;;;1.50;1.00;;;;;;5114636;28;20515;-63
2021/01/18 09:54:18;;;;;;;26.03;18.20;;;1.50;1.00;;;;;;5132662;27;20439;-63
2021/01/18 09:56:45;;;;;;;26.90;17.73;;;;;;;;;;5135213;27;20480;-63
2021/01/18 09:59:14;;;;;;;26.00;18.30;;;1.60;1.00;;;;;;5129918;27;20207;-62
2021/01/18 10:01:42;;;;;;;28.17;18.43;;;1.70;1.00;;;;;;5116750;27;20507;-63
2021/01/18 10:04:19;;;;;;;33.83;19.60;;;1.80;1.00;;;;;;5114220;28;20422;-63
2021/01/18 10:06:47;;;;;;;28.70;18.70;;;1.80;1.00;;;;;;5096538;28;20446;-63
2021/01/18 10:09:18;;;;;;;26.57;18.10;;;1.80;1.00;;;;;;5093219;28;20454;-63
2021/01/18 10:11:46;;;;;;;28.13;18.10;;;2.00;1.00;;;;;;5130498;27;20460;-62
2021/01/18 10:14:24;;;;;;;26.10;17.47;;;1.90;1.00;;;;;;5134778;27;20726;-62
2021/01/18 10:17:07;;;;;;;30.27;18.87;;;1.90;1.00;;;;;;5117549;27;20421;-64
2021/01/18 10:19:37;;;;;;;28.13;18.77;;;2.00;1.00;;;;;;5135155;27;20446;-63
2021/01/18 10:22:04;;;;;;;28.93;18.97;;;2.00;1.00;;;;;;5110646;27;20451;-64
2021/01/18 10:24:32;;;;;;;27.80;18.27;;;2.10;1.00;;;;;;5131452;27;20437;-63
2021/01/18 10:27:13;;;;;;;28.33;19.30;;;2.00;1.00;;;;;;5114357;27;20488;-64
2021/01/18 10:29:41;;;;;;;30.20;18.90;;;;;;;;;;5106714;28;20528;-62
2021/01/18 10:32:07;;;;;;;25.07;18.97;;;2.00;1.00;;;;;;5121945;27;20468;-62
2021/01/18 10:34:36;;;;;;;29.60;18.63;;;2.10;1.00;;;;;;5134500;27;20962;-63
2021/01/18 10:37:13;;;;;;;24.13;17.47;;;2.10;1.00;;;;;;5134484;27;20476;-64
2021/01/18 10:39:43;;;;;;;29.53;18.50;;;2.10;1.00;;;;;;5131631;27;20855;-62
2021/01/18 10:42:11;;;;;;;28.67;19.23;;;4.00;1.00;;;;;;5113388;28;20441;-62
2021/01/18 10:44:49;;;;;;;29.27;19.50;;;2.20;1.00;;;;;;5114005;28;20537;-62
2021/01/18 10:47:15;;;;;;;25.30;17.83;;;2.20;1.00;;;;;;5107093;28;20441;-63
2021/01/18 10:49:42;;;;;;;29.70;20.00;;;2.30;1.00;;;;;;5100603;28;20449;-63
2021/01/18 10:52:11;;;;;;;28.40;20.13;;;2.40;1.00;;;;;;5125727;27;20972;-63
2021/01/18 10:54:37;;;;;;;29.70;19.83;;;2.50;1.00;;;;;;5101111;28;20529;-63
2021/01/18 10:57:19;;;;;;;30.73;20.37;;;2.60;1.00;;;;;;5093254;28;20437;-62
2021/01/18 10:59:45;;;;;;;29.07;17.17;;;2.60;1.00;;;;;;5098932;28;20497;-62
2021/01/18 11:02:14;;;;;;;25.40;18.30;;;2.60;1.00;;;;;;5113510;28;20930;-62
2021/01/18 11:04:45;;;;;;;33.83;20.23;;;2.60;1.00;;;;;;5129294;27;20264;-63
2021/01/18 11:07:12;;;;;;;31.30;20.77;;;2.40;1.00;;;;;;5133835;27;20433;-63
2021/01/18 11:09:38;;;;;;;31.10;19.60;;;2.50;1.00;;;;;;5126571;27;20925;-62
2021/01/18 11:12:05;;;;;;;28.53;19.10;;;2.50;1.00;;;;;;5133613;27;20474;-63
2021/01/18 11:14:31;;;;;;;29.30;20.00;;;;;;;;;;5109644;27;20464;-62
2021/01/18 11:16:59;;;;;;;26.47;18.83;;;2.80;1.00;;;;;;5127846;27;20823;-62
2021/01/18 11:19:25;;;;;;;24.30;18.87;;;3.00;1.00;;;;;;5132053;27;20433;-63
2021/01/18 11:21:51;;;;;;;28.57;21.47;;;3.00;1.00;;;;;;5127678;27;20534;-63
2021/01/18 11:24:17;;;;;;;29.50;20.67;;;3.10;1.00;;;;;;5095816;28;20189;-64
2021/01/18 11:26:42;;;;;;;23.97;18.07;;;3.10;1.00;;;;;;5124757;27;20322;-62
2021/01/18 11:29:08;;;;;;;30.07;19.30;;;3.00;1.00;;;;;;5112214;28;20176;-63
2021/01/18 11:31:34;;;;;;;35.47;19.70;;;;;;;;;;5121181;27;20220;-63
2021/01/18 11:34:00;;;;;;;26.80;19.50;;;3.00;1.00;;;;;;5118939;27;20580;-62
2021/01/18 11:36:26;;;;;;;29.20;19.13;;;3.00;1.00;;;;;;5128798;27;20442;-61
2021/01/18 11:38:52;;;;;;;28.80;18.70;;;3.10;1.00;;;;;;5111601;27;20527;-63
2021/01/18 11:41:18;;;;;;;27.70;19.80;;;3.10;1.00;;;;;;5116843;27;20529;-62
2021/01/18 11:43:44;;;;;;;29.10;18.73;;;3.20;1.00;;;;;;5112690;27;20522;-61
2021/01/18 11:46:16;;;;;;;28.43;19.23;;;3.30;1.00;;;;;;5126384;27;20204;-62
2021/01/18 11:48:41;;;;;;;24.90;17.67;;;3.20;1.00;;;;;;5112517;28;20585;-62
2021/01/18 11:51:07;;;;;;;31.97;20.07;;;3.10;1.00;;;;;;5118434;27;20483;-62
2021/01/18 11:53:33;;;;;;;29.20;19.67;;;;;;;;;;5091721;28;20229;-62
2021/01/18 11:55:59;;;;;;;28.50;19.27;;;3.00;1.00;;;;;;5089881;28;20176;-62
2021/01/18 11:58:24;;;;;;;29.00;19.57;;;4.00;1.00;;;;;;5100737;27;20413;-63
2021/01/18 12:00:50;;;;;;;36.77;19.87;;;;;;;;;;5108629;28;20186;-63
2021/01/18 12:03:16;;;;;;;28.17;20.20;;;3.10;1.00;;;;;;5113977;27;20182;-63
2021/01/18 12:05:41;;;;;;;23.23;17.90;;;3.20;1.00;;;;;;5110884;27;20436;-61
2021/01/18 12:08:07;;;;;;;28.00;18.53;;;3.10;1.00;;;;;;5107550;27;20201;-61
2021/01/18 12:10:34;;;;;;;29.77;19.00;;;3.50;1.00;;;;;;5111995;28;20192;-64
2021/01/18 12:13:01;;;;;;;28.77;18.57;;;3.10;1.00;;;;;;5126887;27;20179;-62
2021/01/18 12:15:27;;;;;;;29.73;20.17;;;3.30;1.00;;;;;;5113898;27;20446;-62
2021/01/18 12:17:53;;;;;;;29.10;19.50;;;3.20;1.00;;;;;;5111761;28;20430;-62
2021/01/18 12:20:20;;;;;;;29.80;20.70;;;3.40;1.00;;;;;;5126084;27;20200;-63
2021/01/18 12:22:46;;;;;;;32.10;19.60;;;3.40;1.00;;;;;;5129383;27;20234;-63
2021/01/18 12:25:12;;;;;;;31.00;20.47;;;3.40;1.00;;;;;;5122289;27;20458;-64
2021/01/18 12:27:38;;;;;;;37.30;22.13;;;3.50;1.00;;;;;;5126893;28;20445;-63
2021/01/18 12:30:05;;;;;;;30.53;20.50;;;3.70;1.00;;;;;;5127404;28;21015;-62
2021/01/18 12:32:31;;;;;;;31.97;18.60;;;3.80;1.00;;;;;;5113428;27;20587;-63
2021/01/18 12:34:57;;;;;;;29.57;19.50;;;;;;;;;;5116128;28;20419;-63
2021/01/18 12:37:22;;;;;;;25.90;15.77;;;4.10;1.00;;;;;;5091371;28;20232;-62
2021/01/18 12:39:48;;;;;;;29.23;18.23;;;4.10;1.00;;;;;;5093227;28;20994;-63
2021/01/18 12:42:14;;;;;;;31.23;18.20;;;4.30;1.00;;;;;;5095485;28;20196;-62
2021/01/18 12:44:39;;;;;;;32.33;17.73;;;4.30;1.00;;;;;;5095692;28;20286;-61
2021/01/18 12:47:06;;;;;;;27.90;20.07;;;4.40;1.00;;;;;;5094249;28;20318;-63
2021/01/18 12:49:32;;;;;;;30.17;18.40;;;4.50;1.00;;;;;;5123040;27;20585;-63
2021/01/18 12:51:57;;;;;;;31.20;19.97;;;4.60;1.00;;;;;;5124033;27;20919;-64
2021/01/18 12:54:23;;;;;;;12.70;9.23;;;4.60;1.00;;;;;;5115851;28;20527;-63
2021/01/18 12:56:51;;;;;;;21.00;13.20;;;4.80;1.00;;;;;;5127356;27;20222;-62
2021/01/18 12:59:18;;;;;;;22.30;15.20;;;5.10;1.00;;;;;;5122482;27;20193;-62
2021/01/18 13:01:44;;;;;;;30.93;19.27;;;5.10;1.00;;;;;;5095029;28;20492;-62
2021/01/18 13:04:10;;;;;;;26.17;16.90;;;5.00;1.00;;;;;;5126816;27;20434;-63
2021/01/18 13:06:37;;;;;;;27.70;16.73;;;5.10;1.00;;;;;;5124529;27;20974;-63
2021/01/18 13:09:05;;;;;;;22.67;14.23;;;5.10;1.00;;;;;;5121595;27;20697;-63